createdAt,value
2022-11-20T00:00:55.818Z,-3.39
2022-11-20T00:03:22.763Z,-2.81
2022-11-20T00:05:49.441Z,-2.96
2022-11-20T00:08:16.196Z,-2.64
2022-11-20T00:10:42.869Z,-2.60
2022-11-20T00:13:09.728Z,-2.82
2022-11-20T00:15:36.352Z,-2.88
2022-11-20T00:18:03.075Z,-2.72
2022-11-20T00:20:29.793Z,-2.86
2022-11-20T00:22:56.372Z,-2.79
2022-11-20T00:25:23.071Z,-2.79
2022-11-20T00:27:49.668Z,-2.76
2022-11-20T00:30:16.450Z,-2.78
2022-11-20T00:32:43.121Z,-2.93
2022-11-20T00:35:09.728Z,-2.92
2022-11-20T00:37:36.306Z,-2.77
2022-11-20T00:40:03.182Z,-2.69
2022-11-20T00:42:30.053Z,-2.79
2022-11-20T00:44:56.724Z,-2.71
2022-11-20T00:47:23.316Z,-2.90
2022-11-20T00:49:49.984Z,-3.02
2022-11-20T00:52:16.628Z,-2.72
2022-11-20T00:54:43.226Z,-2.89
2022-11-20T00:57:09.838Z,-2.57
2022-11-20T00:59:36.456Z,-2.69
2022-11-20T01:02:03.108Z,-2.71
2022-11-20T01:04:29.833Z,-2.81
2022-11-20T01:06:56.536Z,-2.75
2022-11-20T01:09:23.472Z,-2.72
2022-11-20T01:11:50.284Z,-2.88
2022-11-20T01:14:20.151Z,-2.64
2022-11-20T01:16:49.966Z,-2.61
2022-11-20T01:19:23.885Z,-2.86
2022-11-20T01:21:53.195Z,-2.55
2022-11-20T01:24:21.123Z,-2.54
2022-11-20T01:26:52.341Z,-2.60
2022-11-20T01:29:24.331Z,-2.60
2022-11-20T01:31:52.469Z,-2.57
2022-11-20T01:34:20.498Z,-2.78
2022-11-20T01:36:47.222Z,-2.56
2022-11-20T01:39:27.636Z,-2.76
2022-11-20T01:42:13.856Z,-2.63
2022-11-20T01:44:46.428Z,-2.58
2022-11-20T01:47:17.327Z,-2.64
2022-11-20T01:49:51.604Z,-2.63
2022-11-20T01:52:50.147Z,-2.68
2022-11-20T01:55:22.253Z,-2.58
2022-11-20T01:57:49.811Z,-2.53
2022-11-20T02:00:19.215Z,-2.51
2022-11-20T02:03:01.644Z,-2.73
2022-11-20T02:05:52.521Z,-2.62
2022-11-20T02:08:21.028Z,-2.63
2022-11-20T02:10:47.689Z,-2.76
2022-11-20T02:13:33.000Z,-2.68
2022-11-20T02:15:59.848Z,-2.61
2022-11-20T02:18:27.093Z,-2.58
2022-11-20T02:21:25.629Z,-2.59
2022-11-20T02:23:55.316Z,-2.66
2022-11-20T02:26:24.169Z,-2.60
2022-11-20T02:28:51.483Z,-2.59
2022-11-20T02:31:18.084Z,-2.56
2022-11-20T02:33:44.711Z,-2.70
2022-11-20T02:36:15.413Z,-2.60
2022-11-20T02:38:44.104Z,-2.51
2022-11-20T02:41:10.846Z,-2.46
2022-11-20T02:43:37.591Z,-2.38
2022-11-20T02:46:04.211Z,-2.37
2022-11-20T02:48:33.811Z,-2.68
2022-11-20T02:51:01.104Z,-2.62
2022-11-20T02:53:27.922Z,-2.67
2022-11-20T02:55:54.562Z,-2.64
2022-11-20T02:58:21.222Z,-2.51
2022-11-20T03:00:47.763Z,-2.55
2022-11-20T03:03:14.377Z,-2.69
2022-11-20T03:05:40.929Z,-2.59
2022-11-20T03:08:07.545Z,-2.44
2022-11-20T03:10:34.172Z,-2.57
2022-11-20T03:13:00.715Z,-2.40
2022-11-20T03:15:27.287Z,-2.37
2022-11-20T03:17:56.130Z,-2.38
2022-11-20T03:20:23.763Z,-2.28
2022-11-20T03:22:50.549Z,-2.40
2022-11-20T03:25:17.235Z,-2.31
2022-11-20T03:27:43.859Z,-2.22
2022-11-20T03:30:10.818Z,-2.07
2022-11-20T03:32:37.411Z,-2.31
2022-11-20T03:35:04.137Z,-2.50
2022-11-20T03:37:30.699Z,-2.35
2022-11-20T03:39:57.251Z,-2.11
2022-11-20T03:42:42.334Z,-2.44
2022-11-20T03:45:09.412Z,-2.31
2022-11-20T03:47:36.159Z,-2.32
2022-11-20T03:50:03.360Z,-2.41
2022-11-20T03:52:30.045Z,-2.53
2022-11-20T03:54:56.627Z,-2.52
2022-11-20T03:57:23.250Z,-2.41
2022-11-20T03:59:49.861Z,-2.58
2022-11-20T04:02:16.460Z,-2.35
2022-11-20T04:04:43.134Z,-2.63
2022-11-20T04:07:09.824Z,-2.46
2022-11-20T04:09:36.484Z,-2.37
2022-11-20T04:12:03.128Z,-2.72
2022-11-20T04:14:29.750Z,-2.52
2022-11-20T04:16:56.323Z,-2.47
2022-11-20T04:19:23.448Z,-2.83
2022-11-20T04:21:50.237Z,-2.54
2022-11-20T04:24:16.845Z,-2.52
2022-11-20T04:26:43.415Z,-2.44
2022-11-20T04:29:12.564Z,-2.54
2022-11-20T04:31:39.419Z,-2.28
2022-11-20T04:34:07.649Z,-2.27
2022-11-20T04:36:34.574Z,-2.44
2022-11-20T04:39:04.554Z,-2.38
2022-11-20T04:41:34.017Z,-2.32
2022-11-20T04:44:05.599Z,-2.31
2022-11-20T04:46:41.049Z,-2.28
2022-11-20T04:49:08.703Z,-2.35
2022-11-20T04:51:35.998Z,-2.38
2022-11-20T04:54:03.006Z,-2.45
2022-11-20T04:56:29.712Z,-2.44
2022-11-20T04:58:56.335Z,-2.70
2022-11-20T05:01:25.802Z,-2.48
2022-11-20T05:03:52.894Z,-2.49
2022-11-20T05:06:21.546Z,-2.61
2022-11-20T05:08:48.721Z,-2.83
2022-11-20T05:11:18.610Z,-2.53
2022-11-20T05:13:45.513Z,-2.75
2022-11-20T05:16:14.781Z,-2.46
2022-11-20T05:18:42.456Z,-2.65
2022-11-20T05:21:10.507Z,-2.46
2022-11-20T05:23:37.764Z,-2.41
2022-11-20T05:26:05.599Z,-2.33
2022-11-20T05:28:33.238Z,-2.36
2022-11-20T05:31:14.833Z,-2.36
2022-11-20T05:33:43.177Z,-2.50
2022-11-20T05:36:10.558Z,-2.67
2022-11-20T05:38:37.191Z,-2.48
2022-11-20T05:41:22.419Z,-2.45
2022-11-20T05:43:50.294Z,-2.59
2022-11-20T05:46:24.745Z,-2.45
2022-11-20T05:48:54.631Z,-2.58
2022-11-20T05:51:21.323Z,-2.53
2022-11-20T05:53:48.921Z,-2.48
2022-11-20T05:56:20.991Z,-2.48
2022-11-20T05:58:48.556Z,-2.69
2022-11-20T06:01:24.011Z,-2.55
2022-11-20T06:03:51.857Z,-2.78
2022-11-20T06:06:19.465Z,-2.42
2022-11-20T06:08:46.534Z,-2.41
2022-11-20T06:11:14.728Z,-2.32
2022-11-20T06:13:42.732Z,-2.30
2022-11-20T06:16:10.878Z,-2.43
2022-11-20T06:18:38.083Z,-2.34
2022-11-20T06:21:08.867Z,-2.28
2022-11-20T06:23:36.660Z,-2.34
2022-11-20T06:26:09.517Z,-2.27
2022-11-20T06:28:36.596Z,-2.26
2022-11-20T06:31:04.261Z,-2.41
2022-11-20T06:33:31.220Z,-2.24
2022-11-20T06:36:01.637Z,-2.20
2022-11-20T06:38:30.759Z,-2.30
2022-11-20T06:40:57.628Z,-2.12
2022-11-20T06:43:25.264Z,-2.16
2022-11-20T06:45:56.033Z,-2.28
2022-11-20T06:48:23.558Z,-2.38
2022-11-20T06:50:50.188Z,-2.30
2022-11-20T06:53:16.990Z,-2.34
2022-11-20T06:55:45.636Z,-2.31
2022-11-20T06:58:16.622Z,-2.31
2022-11-20T07:00:43.441Z,-2.32
2022-11-20T07:03:11.809Z,-2.15
2022-11-20T07:05:39.477Z,-2.09
2022-11-20T07:08:06.219Z,-2.15
2022-11-20T07:10:33.216Z,-1.96
2022-11-20T07:13:00.375Z,-1.92
2022-11-20T07:15:27.034Z,-2.01
2022-11-20T07:17:53.714Z,-2.11
2022-11-20T07:20:20.338Z,-2.00
2022-11-20T07:22:47.017Z,-1.99
2022-11-20T07:25:13.636Z,-2.17
2022-11-20T07:27:40.279Z,-2.04
2022-11-20T07:30:07.814Z,-1.99
2022-11-20T07:32:34.435Z,-2.09
2022-11-20T07:35:01.024Z,-1.99
2022-11-20T07:37:27.606Z,-1.99
2022-11-20T07:39:54.246Z,-2.24
2022-11-20T07:42:20.837Z,-2.03
2022-11-20T07:44:50.386Z,-2.12
2022-11-20T07:47:16.978Z,-1.91
2022-11-20T07:49:43.583Z,-1.99
2022-11-20T07:52:10.166Z,-2.15
2022-11-20T07:54:36.870Z,-2.11
2022-11-20T07:57:03.647Z,-1.96
2022-11-20T07:59:30.223Z,-2.13
2022-11-20T08:01:56.792Z,-2.16
2022-11-20T08:04:24.371Z,-1.86
2022-11-20T08:06:53.366Z,-1.79
2022-11-20T08:09:20.274Z,-1.73
2022-11-20T08:12:05.689Z,-1.87
2022-11-20T08:14:32.383Z,-1.96
2022-11-20T08:16:58.937Z,-1.86
2022-11-20T08:19:25.502Z,-1.86
2022-11-20T08:21:52.087Z,-1.72
2022-11-20T08:24:18.730Z,-1.92
2022-11-20T08:26:45.365Z,-2.00
2022-11-20T08:29:12.167Z,-1.80
2022-11-20T08:31:38.984Z,-1.85
2022-11-20T08:34:09.194Z,-1.69
2022-11-20T08:36:36.532Z,-1.58
2022-11-20T08:39:04.147Z,-1.67
2022-11-20T08:41:33.847Z,-1.84
2022-11-20T08:44:03.067Z,-1.42
2022-11-20T08:46:36.382Z,-1.31
2022-11-20T08:49:03.495Z,-1.57
2022-11-20T08:51:30.370Z,-1.52
2022-11-20T08:53:57.119Z,-1.28
2022-11-20T08:56:23.821Z,-1.49
2022-11-20T08:59:20.196Z,-1.37
2022-11-20T09:01:39.972Z,-1.28
2022-11-20T09:04:06.829Z,-1.22
2022-11-20T09:06:33.510Z,-1.12
2022-11-20T09:09:06.138Z,-1.05
2022-11-20T09:11:33.409Z,-1.14
2022-11-20T09:14:00.990Z,-1.13
2022-11-20T09:16:27.613Z,-1.29
2022-11-20T09:19:13.498Z,-1.31
2022-11-20T09:21:40.799Z,-1.25
2022-11-20T09:24:07.673Z,-1.02
2022-11-20T09:26:34.331Z,-1.18
2022-11-20T09:29:00.910Z,-1.12
2022-11-20T09:31:27.601Z,-1.14
2022-11-20T09:33:54.541Z,-1.40
2022-11-20T09:36:21.332Z,-1.26
2022-11-20T09:38:48.134Z,-0.95
2022-11-20T09:41:46.825Z,-0.88
2022-11-20T09:44:35.467Z,-0.91
2022-11-20T09:47:26.699Z,-0.72
2022-11-20T09:50:22.502Z,-0.94
2022-11-20T09:53:20.218Z,-0.72
2022-11-20T09:55:47.341Z,-0.81
2022-11-20T09:58:21.963Z,-0.93
2022-11-20T10:00:49.310Z,-0.98
2022-11-20T10:03:24.053Z,-0.68
2022-11-20T10:05:56.138Z,-0.54
2022-11-20T10:08:26.298Z,-0.61
2022-11-20T10:11:08.295Z,-0.64
2022-11-20T10:13:44.206Z,-0.62
2022-11-20T10:16:17.816Z,-0.71
2022-11-20T10:19:08.259Z,-0.86
2022-11-20T10:21:57.950Z,-0.67
2022-11-20T10:25:05.373Z,-0.76
2022-11-20T10:27:51.898Z,-0.83
2022-11-20T10:30:21.796Z,-0.80
2022-11-20T10:32:58.803Z,-1.03
2022-11-20T10:35:52.124Z,-0.85
2022-11-20T10:38:26.898Z,-0.85
2022-11-20T10:41:21.700Z,-1.05
2022-11-20T10:43:52.727Z,-0.76
2022-11-20T10:46:25.545Z,-0.95
2022-11-20T10:48:52.589Z,-0.80
2022-11-20T10:52:00.410Z,-0.63
2022-11-20T10:55:12.166Z,-0.63
2022-11-20T10:57:57.546Z,-0.50
2022-11-20T11:00:24.325Z,-0.78
2022-11-20T11:02:57.342Z,-0.48
2022-11-20T11:05:51.524Z,-0.70
2022-11-20T11:08:20.355Z,-0.58
2022-11-20T11:10:57.097Z,-0.48
2022-11-20T11:13:29.190Z,-0.64
2022-11-20T11:15:56.419Z,-0.40
2022-11-20T11:18:28.277Z,-0.40
2022-11-20T11:20:56.254Z,-0.53
2022-11-20T11:23:38.690Z,-0.37
2022-11-20T11:26:07.888Z,-0.57
2022-11-20T11:28:35.207Z,-0.35
2022-11-20T11:31:01.889Z,-0.27
2022-11-20T11:33:36.088Z,-0.41
2022-11-20T11:36:17.422Z,-0.22
2022-11-20T11:38:45.316Z,-0.16
2022-11-20T11:41:21.961Z,-0.12
2022-11-20T11:44:16.430Z,-0.24
2022-11-20T11:46:57.302Z,-0.30
2022-11-20T11:49:24.100Z,-0.06
2022-11-20T11:52:08.827Z,-0.07
2022-11-20T11:54:38.322Z,-0.10
2022-11-20T11:57:31.489Z,-0.21
2022-11-20T12:00:12.247Z,-0.09
2022-11-20T12:02:43.706Z,0.02
2022-11-20T12:05:17.858Z,-0.06
2022-11-20T12:07:51.235Z,-0.09
2022-11-20T12:10:25.045Z,0.17
2022-11-20T12:13:01.877Z,0.47
2022-11-20T12:15:35.104Z,0.58
2022-11-20T12:18:02.191Z,0.58
2022-11-20T12:20:41.750Z,0.66
2022-11-20T12:23:22.958Z,0.46
2022-11-20T12:25:56.584Z,0.53
2022-11-20T12:28:37.966Z,0.58
2022-11-20T12:31:37.562Z,0.43
2022-11-20T12:34:10.303Z,0.32
2022-11-20T12:36:48.746Z,0.47
2022-11-20T12:39:36.607Z,0.66
2022-11-20T12:42:41.029Z,0.38
2022-11-20T12:45:29.347Z,0.36
2022-11-20T12:48:31.497Z,0.37
2022-11-20T12:51:25.882Z,0.68
2022-11-20T12:54:04.257Z,0.72
2022-11-20T12:56:40.317Z,0.74
2022-11-20T12:59:25.728Z,0.62
2022-11-20T13:01:56.104Z,0.49
2022-11-20T13:04:37.866Z,0.83
2022-11-20T13:07:09.743Z,0.80
2022-11-20T13:09:49.416Z,0.79
2022-11-20T13:12:41.518Z,0.74
2022-11-20T13:15:43.636Z,0.68
2022-11-20T13:18:12.213Z,0.42
2022-11-20T13:20:44.500Z,0.47
2022-11-20T13:23:11.459Z,0.59
2022-11-20T13:25:40.018Z,0.63
2022-11-20T13:28:12.677Z,0.67
2022-11-20T13:30:52.056Z,0.50
2022-11-20T13:33:33.001Z,0.47
2022-11-20T13:36:06.100Z,0.52
2022-11-20T13:38:48.588Z,0.32
2022-11-20T13:41:38.733Z,0.32
2022-11-20T13:44:16.311Z,0.39
2022-11-20T13:46:45.800Z,0.47
2022-11-20T13:49:28.296Z,0.40
2022-11-20T13:52:31.893Z,0.18
2022-11-20T13:55:26.653Z,0.28
2022-11-20T13:58:06.945Z,0.17
2022-11-20T14:00:33.696Z,-0.03
2022-11-20T14:03:06.429Z,0.14
2022-11-20T14:05:40.793Z,0.06
2022-11-20T14:08:14.905Z,-0.01
2022-11-20T14:10:41.567Z,0.26
2022-11-20T14:13:18.532Z,0.30
2022-11-20T14:15:45.492Z,0.20
2022-11-20T14:18:22.834Z,0.18
2022-11-20T14:20:49.937Z,0.26
2022-11-20T14:23:29.743Z,0.17
2022-11-20T14:25:57.183Z,0.43
2022-11-20T14:28:32.521Z,0.42
2022-11-20T14:30:59.420Z,0.29
2022-11-20T14:33:27.902Z,0.33
2022-11-20T14:35:58.983Z,0.36
2022-11-20T14:38:28.476Z,0.41
2022-11-20T14:40:55.248Z,0.39
2022-11-20T14:43:29.568Z,0.62
2022-11-20T14:46:03.217Z,0.67
2022-11-20T14:48:39.255Z,0.65
2022-11-20T14:51:05.855Z,0.81
2022-11-20T14:53:32.524Z,0.49
2022-11-20T14:56:01.554Z,0.50
2022-11-20T14:58:31.265Z,0.23
2022-11-20T15:01:04.395Z,0.36
2022-11-20T15:03:36.745Z,0.25
2022-11-20T15:06:04.537Z,0.25
2022-11-20T15:08:31.349Z,0.10
2022-11-20T15:10:58.668Z,0.12
2022-11-20T15:13:28.411Z,0.11
2022-11-20T15:15:57.329Z,0.09
2022-11-20T15:18:28.048Z,0.03
2022-11-20T15:20:57.267Z,-0.23
2022-11-20T15:23:24.875Z,-0.06
2022-11-20T15:25:51.682Z,-0.27
2022-11-20T15:28:34.331Z,-0.15
2022-11-20T15:31:03.177Z,-0.11
2022-11-20T15:33:30.719Z,-0.12
2022-11-20T15:35:57.956Z,-0.15
2022-11-20T15:38:24.704Z,-0.14
2022-11-20T15:40:51.508Z,-0.38
2022-11-20T15:43:18.150Z,-0.31
2022-11-20T15:45:52.152Z,-0.32
2022-11-20T15:48:20.818Z,-0.15
2022-11-20T15:51:12.292Z,-0.19
2022-11-20T15:53:41.126Z,-0.36
2022-11-20T15:56:12.965Z,-0.28
2022-11-20T15:58:40.102Z,-0.17
2022-11-20T16:01:06.877Z,-0.27
2022-11-20T16:03:33.510Z,-0.03
2022-11-20T16:06:00.112Z,-0.06
2022-11-20T16:08:26.725Z,-0.29
2022-11-20T16:10:53.318Z,-0.11
2022-11-20T16:13:38.590Z,-0.23
2022-11-20T16:16:09.000Z,-0.13
2022-11-20T16:18:36.085Z,-0.27
2022-11-20T16:21:03.257Z,-0.05
2022-11-20T16:23:30.110Z,-0.04
2022-11-20T16:25:56.712Z,-0.09
2022-11-20T16:28:23.405Z,0.05
2022-11-20T16:30:50.015Z,0.01
2022-11-20T16:33:18.339Z,-0.07
2022-11-20T16:35:45.486Z,-0.08
2022-11-20T16:38:12.350Z,-0.37
2022-11-20T16:40:38.958Z,-0.33
2022-11-20T16:43:11.519Z,-0.17
2022-11-20T16:45:45.321Z,-0.16
2022-11-20T16:48:16.827Z,-0.20
2022-11-20T16:50:48.096Z,-0.19
2022-11-20T16:53:15.187Z,-0.45
2022-11-20T16:55:42.063Z,-0.69
2022-11-20T16:58:09.383Z,-0.41
2022-11-20T17:00:40.585Z,-0.36
2022-11-20T17:03:07.933Z,-0.25
2022-11-20T17:05:36.153Z,-0.16
2022-11-20T17:08:03.170Z,-0.19
2022-11-20T17:10:29.866Z,-0.17
2022-11-20T17:12:56.756Z,-0.35
2022-11-20T17:15:23.503Z,-0.31
2022-11-20T17:17:52.351Z,-0.27
2022-11-20T17:20:18.998Z,-0.22
2022-11-20T17:22:45.703Z,-0.24
2022-11-20T17:25:12.457Z,-0.38
2022-11-20T17:27:39.160Z,-0.42
2022-11-20T17:30:06.228Z,-0.31
2022-11-20T17:32:35.907Z,-0.16
2022-11-20T17:35:02.534Z,-0.14
2022-11-20T17:37:29.185Z,-0.14
2022-11-20T17:39:55.820Z,-0.17
2022-11-20T17:42:29.665Z,-0.13
2022-11-20T17:44:58.854Z,-0.11
2022-11-20T17:47:26.388Z,-0.12
2022-11-20T17:49:55.112Z,-0.14
2022-11-20T17:52:22.752Z,-0.01
2022-11-20T17:54:49.434Z,0.01
2022-11-20T17:57:34.750Z,-0.23
2022-11-20T18:00:01.390Z,-0.12
2022-11-20T18:02:28.197Z,-0.44
2022-11-20T18:04:54.998Z,-0.38
2022-11-20T18:07:21.736Z,-0.42
2022-11-20T18:09:48.374Z,-0.32
2022-11-20T18:12:15.167Z,-0.19
2022-11-20T18:14:43.591Z,-0.24
2022-11-20T18:17:12.664Z,-0.19
2022-11-20T18:20:01.099Z,-0.38
2022-11-20T18:22:32.036Z,-0.36
2022-11-20T18:24:58.754Z,-0.24
2022-11-20T18:27:25.546Z,-0.24
2022-11-20T18:29:52.534Z,-0.30
2022-11-20T18:32:22.874Z,-0.22
2022-11-20T18:34:53.210Z,-0.58
2022-11-20T18:37:20.106Z,-0.21
2022-11-20T18:39:46.845Z,-0.19
2022-11-20T18:42:34.109Z,-0.10
2022-11-20T18:45:02.252Z,-0.23
2022-11-20T18:47:30.864Z,-0.33
2022-11-20T18:50:01.769Z,-0.19
2022-11-20T18:52:29.701Z,-0.21
2022-11-20T18:54:56.785Z,-0.28
2022-11-20T18:57:25.783Z,-0.32
2022-11-20T18:59:54.057Z,-0.28
2022-11-20T19:02:23.928Z,-0.26
2022-11-20T19:04:50.707Z,-0.42
2022-11-20T19:07:18.046Z,-0.44
2022-11-20T19:09:49.063Z,-0.47
2022-11-20T19:12:16.507Z,-0.28
2022-11-20T19:14:43.188Z,-0.51
2022-11-20T19:17:11.377Z,-0.46
2022-11-20T19:19:38.166Z,-0.48
2022-11-20T19:22:05.366Z,-0.36
2022-11-20T19:24:31.988Z,-0.29
2022-11-20T19:26:58.728Z,-0.09
2022-11-20T19:29:25.992Z,-0.45
2022-11-20T19:31:53.633Z,-0.12
2022-11-20T19:34:20.390Z,-0.25
2022-11-20T19:36:47.148Z,-0.54
2022-11-20T19:39:14.025Z,-0.41
2022-11-20T19:41:41.439Z,-0.67
2022-11-20T19:44:09.578Z,-0.61
2022-11-20T19:46:38.090Z,-0.62
2022-11-20T19:49:07.486Z,-0.66
2022-11-20T19:51:35.334Z,-0.49
2022-11-20T19:54:03.166Z,-0.77
2022-11-20T19:56:31.193Z,-0.68
2022-11-20T19:58:58.322Z,-0.44
2022-11-20T20:01:27.238Z,-0.59
2022-11-20T20:03:55.304Z,-0.43
2022-11-20T20:06:26.407Z,-0.42
2022-11-20T20:08:56.232Z,-0.39
2022-11-20T20:11:24.622Z,-0.37
2022-11-20T20:13:51.427Z,-0.51
2022-11-20T20:16:21.793Z,-0.26
2022-11-20T20:18:48.806Z,-0.18
2022-11-20T20:21:18.572Z,-0.34
2022-11-20T20:23:45.728Z,-0.18
2022-11-20T20:26:12.384Z,-0.45
2022-11-20T20:28:39.180Z,-0.27
2022-11-20T20:31:10.917Z,-0.32
2022-11-20T20:33:38.961Z,-0.16
2022-11-20T20:36:07.721Z,-0.30
2022-11-20T20:38:34.855Z,-0.34
2022-11-20T20:41:02.047Z,-0.25
2022-11-20T20:43:29.145Z,-0.33
2022-11-20T20:45:55.914Z,-0.54
2022-11-20T20:48:24.456Z,-0.28
2022-11-20T20:50:59.398Z,-0.27
2022-11-20T20:53:30.881Z,-0.35
2022-11-20T20:56:02.342Z,-0.52
2022-11-20T20:58:30.553Z,-0.45
2022-11-20T21:01:05.396Z,-0.73
2022-11-20T21:03:36.148Z,-0.49
2022-11-20T21:06:03.864Z,-0.41
2022-11-20T21:08:30.968Z,-0.32
2022-11-20T21:11:10.316Z,-0.30
2022-11-20T21:13:38.892Z,-0.48
2022-11-20T21:16:05.754Z,-0.56
2022-11-20T21:18:33.554Z,-0.27
2022-11-20T21:21:22.463Z,-0.33
2022-11-20T21:23:49.175Z,-0.49
2022-11-20T21:26:16.222Z,-0.51
2022-11-20T21:28:43.202Z,-0.49
2022-11-20T21:31:11.248Z,-0.36
2022-11-20T21:33:39.962Z,-0.34
2022-11-20T21:36:13.420Z,-0.35
2022-11-20T21:38:40.685Z,-0.35
2022-11-20T21:41:09.139Z,-0.37
2022-11-20T21:43:36.229Z,-0.47
2022-11-20T21:46:03.189Z,-0.38
2022-11-20T21:48:31.712Z,-0.55
2022-11-20T21:51:10.166Z,-0.55
2022-11-20T21:53:37.167Z,-0.49
2022-11-20T21:56:05.275Z,-0.34
2022-11-20T21:58:32.167Z,-0.31
2022-11-20T22:00:59.116Z,-0.49
2022-11-20T22:03:28.245Z,-0.38
2022-11-20T22:05:58.750Z,-0.16
2022-11-20T22:08:26.362Z,-0.01
2022-11-20T22:10:54.997Z,-0.05
2022-11-20T22:13:40.407Z,-0.13
2022-11-20T22:16:07.417Z,-0.19
2022-11-20T22:18:34.176Z,-0.31
2022-11-20T22:21:07.150Z,-0.40
2022-11-20T22:23:34.541Z,-0.10
2022-11-20T22:26:03.492Z,-0.07
2022-11-20T22:28:30.272Z,-0.19
2022-11-20T22:31:01.938Z,0.18
2022-11-20T22:33:29.760Z,0.28
2022-11-20T22:36:04.418Z,0.22
2022-11-20T22:38:36.388Z,0.26
2022-11-20T22:41:17.262Z,0.24
2022-11-20T22:43:46.946Z,0.41
2022-11-20T22:46:16.174Z,0.52
2022-11-20T22:48:54.295Z,0.27
2022-11-20T22:51:26.641Z,0.65
2022-11-20T22:53:53.475Z,0.73
2022-11-20T22:56:21.027Z,0.75
2022-11-20T22:58:50.100Z,0.82
2022-11-20T23:01:20.622Z,0.84
2022-11-20T23:03:52.453Z,0.70
2022-11-20T23:06:20.813Z,0.65
2022-11-20T23:08:48.488Z,0.78
2022-11-20T23:11:18.469Z,0.75
2022-11-20T23:13:46.063Z,0.81
2022-11-20T23:16:15.816Z,0.69
2022-11-20T23:18:43.863Z,0.81
2022-11-20T23:21:16.018Z,0.79
2022-11-20T23:23:43.601Z,0.98
2022-11-20T23:26:12.879Z,0.77
2022-11-20T23:28:40.910Z,1.03
2022-11-20T23:31:08.409Z,1.04
2022-11-20T23:33:36.575Z,0.78
2022-11-20T23:36:04.456Z,1.01
2022-11-20T23:38:31.090Z,0.96
2022-11-20T23:40:57.890Z,0.86
2022-11-20T23:43:25.153Z,1.05
2022-11-20T23:45:56.907Z,1.06
2022-11-20T23:48:26.308Z,0.81
2022-11-20T23:50:53.157Z,0.86
2022-11-20T23:53:21.985Z,1.09
2022-11-20T23:55:50.897Z,1.11
2022-11-20T23:58:17.717Z,1.14
